createdAt,value
2023-08-08T00:01:30.192Z,13.60
2023-08-08T00:04:00.205Z,13.60
2023-08-08T00:06:30.126Z,13.60
2023-08-08T00:09:00.010Z,13.60
2023-08-08T00:11:29.889Z,13.60
2023-08-08T00:14:00.054Z,13.60
2023-08-08T00:16:32.592Z,13.60
2023-08-08T00:19:02.474Z,13.70
2023-08-08T00:21:32.326Z,13.70
2023-08-08T00:24:02.205Z,13.80
2023-08-08T00:26:32.351Z,13.80
2023-08-08T00:29:02.280Z,13.80
2023-08-08T00:31:34.813Z,13.80
2023-08-08T00:34:04.747Z,13.90
2023-08-08T00:36:34.656Z,13.90
2023-08-08T00:39:04.542Z,14.00
2023-08-08T00:41:34.423Z,14.00
2023-08-08T00:44:04.316Z,13.90
2023-08-08T00:46:36.848Z,14.00
2023-08-08T00:49:06.729Z,14.00
2023-08-08T00:51:36.673Z,14.00
2023-08-08T00:54:07.399Z,14.00
2023-08-08T00:56:37.432Z,14.00
2023-08-08T00:59:07.927Z,14.00
2023-08-08T01:01:40.380Z,14.00
2023-08-08T01:04:10.426Z,14.00
2023-08-08T01:06:45.559Z,14.00
2023-08-08T01:09:20.927Z,14.00
2023-08-08T01:11:51.163Z,14.00
2023-08-08T01:14:22.454Z,14.00
2023-08-08T01:16:59.010Z,14.10
2023-08-08T01:19:32.248Z,14.10
2023-08-08T01:22:06.232Z,14.10
2023-08-08T01:24:39.793Z,14.10
2023-08-08T01:27:10.575Z,14.20
2023-08-08T01:29:40.788Z,14.20
2023-08-08T01:32:11.892Z,14.20
2023-08-08T01:34:42.195Z,14.30
2023-08-08T01:37:18.957Z,14.20
2023-08-08T01:39:54.471Z,14.20
2023-08-08T01:42:26.556Z,14.20
2023-08-08T01:44:57.310Z,14.20
2023-08-08T01:47:27.271Z,14.20
2023-08-08T01:49:57.224Z,14.20
2023-08-08T01:52:27.085Z,14.20
2023-08-08T01:54:59.604Z,14.20
2023-08-08T01:57:29.454Z,14.30
2023-08-08T01:59:59.386Z,14.20
2023-08-08T02:02:32.182Z,14.20
2023-08-08T02:05:02.258Z,14.20
2023-08-08T02:07:32.101Z,14.20
2023-08-08T02:10:04.657Z,14.20
2023-08-08T02:12:34.666Z,14.20
2023-08-08T02:15:05.778Z,14.10
2023-08-08T02:17:35.841Z,14.10
2023-08-08T02:20:06.472Z,14.10
2023-08-08T02:22:36.474Z,14.10
2023-08-08T02:25:09.805Z,14.00
2023-08-08T02:27:39.660Z,13.90
2023-08-08T02:30:11.072Z,13.90
2023-08-08T02:32:40.995Z,13.90
2023-08-08T02:35:12.833Z,13.80
2023-08-08T02:37:42.826Z,13.80
2023-08-08T02:40:15.633Z,13.80
2023-08-08T02:42:45.492Z,13.80
2023-08-08T02:45:15.382Z,13.70
2023-08-08T02:47:45.239Z,13.70
2023-08-08T02:50:15.194Z,13.60
2023-08-08T02:52:45.065Z,13.50
2023-08-08T02:55:17.636Z,13.50
2023-08-08T02:57:47.552Z,13.50
2023-08-08T03:00:18.408Z,13.40
2023-08-08T03:02:48.326Z,13.40
2023-08-08T03:05:18.226Z,13.30
2023-08-08T03:07:48.095Z,13.40
2023-08-08T03:10:20.758Z,13.30
2023-08-08T03:12:50.678Z,13.30
2023-08-08T03:15:20.754Z,13.30
2023-08-08T03:17:50.998Z,13.20
2023-08-08T03:20:21.115Z,13.20
2023-08-08T03:22:51.143Z,13.20
2023-08-08T03:25:23.746Z,13.20
2023-08-08T03:27:53.668Z,13.20
2023-08-08T03:30:23.736Z,13.20
2023-08-08T03:32:53.662Z,13.20
2023-08-08T03:35:23.652Z,13.10
2023-08-08T03:37:53.541Z,13.10
2023-08-08T03:40:26.109Z,13.10
2023-08-08T03:42:56.000Z,13.10
2023-08-08T03:45:25.924Z,13.20
2023-08-08T03:47:55.817Z,13.20
2023-08-08T03:50:25.724Z,13.30
2023-08-08T03:52:56.122Z,13.30
2023-08-08T03:55:29.013Z,13.30
2023-08-08T03:57:58.900Z,13.40
2023-08-08T04:00:28.797Z,13.40
2023-08-08T04:02:58.794Z,13.40
2023-08-08T04:05:28.707Z,13.50
2023-08-08T04:07:58.612Z,13.50
2023-08-08T04:10:31.090Z,13.50
2023-08-08T04:13:00.963Z,13.50
2023-08-08T04:15:30.892Z,13.60
2023-08-08T04:18:00.979Z,13.60
2023-08-08T04:20:30.872Z,13.60
2023-08-08T04:23:00.727Z,13.60
2023-08-08T04:25:33.852Z,13.60
2023-08-08T04:28:03.759Z,13.60
2023-08-08T04:30:33.666Z,13.70
2023-08-08T04:33:03.605Z,13.70
2023-08-08T04:35:33.549Z,13.70
2023-08-08T04:38:03.445Z,13.70
2023-08-08T04:40:36.891Z,13.80
2023-08-08T04:43:08.312Z,13.80
2023-08-08T04:45:38.232Z,13.90
2023-08-08T04:48:09.161Z,13.90
2023-08-08T04:50:39.075Z,13.90
2023-08-08T04:53:08.935Z,13.90
2023-08-08T04:55:41.402Z,13.90
2023-08-08T04:58:11.259Z,14.00
2023-08-08T05:00:41.185Z,14.00
2023-08-08T05:03:11.182Z,14.10
2023-08-08T05:05:41.170Z,14.20
2023-08-08T05:08:11.020Z,15.60
2023-08-08T05:10:43.495Z,17.30
2023-08-08T05:13:14.362Z,18.20
2023-08-08T05:15:44.217Z,17.20
2023-08-08T05:18:14.162Z,17.00
2023-08-08T05:20:44.046Z,18.60
2023-08-08T05:23:13.942Z,20.00
2023-08-08T05:25:46.721Z,17.90
2023-08-08T05:28:16.581Z,16.60
2023-08-08T05:30:46.478Z,16.10
2023-08-08T05:33:16.414Z,16.80
2023-08-08T05:35:46.343Z,17.30
2023-08-08T05:38:16.198Z,19.20
2023-08-08T05:40:48.683Z,19.10
2023-08-08T05:43:19.625Z,20.00
2023-08-08T05:45:49.701Z,21.40
2023-08-08T05:48:20.402Z,21.40
2023-08-08T05:50:50.326Z,21.40
2023-08-08T05:53:20.172Z,20.80
2023-08-08T05:55:52.627Z,19.80
2023-08-08T05:58:22.500Z,17.90
2023-08-08T06:00:52.445Z,17.30
2023-08-08T06:03:22.536Z,17.30
2023-08-08T06:05:52.542Z,16.80
2023-08-08T06:08:22.573Z,16.90
2023-08-08T06:10:55.039Z,17.00
2023-08-08T06:13:24.899Z,17.00
2023-08-08T06:15:54.965Z,17.10
2023-08-08T06:18:24.936Z,17.20
2023-08-08T06:20:54.872Z,17.30
2023-08-08T06:23:24.749Z,17.10
2023-08-08T06:25:57.309Z,17.50
2023-08-08T06:28:27.313Z,17.90
2023-08-08T06:30:57.236Z,17.80
2023-08-08T06:33:27.436Z,17.70
2023-08-08T06:35:57.301Z,18.00
2023-08-08T06:38:27.186Z,18.50
2023-08-08T06:40:59.936Z,18.40
2023-08-08T06:43:29.831Z,18.60
2023-08-08T06:46:00.110Z,18.50
2023-08-08T06:48:30.074Z,18.20
2023-08-08T06:50:59.925Z,17.80
2023-08-08T06:53:29.949Z,17.80
2023-08-08T06:56:02.439Z,17.90
2023-08-08T06:58:32.388Z,18.00
2023-08-08T07:01:02.337Z,18.00
2023-08-08T07:03:32.508Z,18.30
2023-08-08T07:06:02.461Z,18.30
2023-08-08T07:08:33.447Z,18.20
2023-08-08T07:11:07.236Z,18.30
2023-08-08T07:13:37.708Z,18.30
2023-08-08T07:16:08.642Z,18.70
2023-08-08T07:18:38.784Z,18.80
2023-08-08T07:21:09.005Z,18.90
2023-08-08T07:23:38.871Z,18.80
2023-08-08T07:26:11.707Z,18.60
2023-08-08T07:28:41.678Z,18.50
2023-08-08T07:31:11.635Z,18.50
2023-08-08T07:33:41.650Z,18.80
2023-08-08T07:36:11.505Z,19.20
2023-08-08T07:38:41.416Z,19.50
2023-08-08T07:41:13.994Z,19.90
2023-08-08T07:43:43.841Z,19.90
2023-08-08T07:46:13.898Z,19.40
2023-08-08T07:48:43.770Z,19.60
2023-08-08T07:51:13.627Z,19.80
2023-08-08T07:53:45.090Z,20.10
2023-08-08T07:56:19.574Z,20.10
2023-08-08T07:58:49.458Z,20.00
2023-08-08T08:01:19.917Z,19.80
2023-08-08T08:03:50.033Z,20.10
2023-08-08T08:06:20.072Z,19.60
2023-08-08T08:08:49.992Z,19.60
2023-08-08T08:11:22.521Z,19.40
2023-08-08T08:13:52.504Z,19.60
2023-08-08T08:16:22.541Z,19.70
2023-08-08T08:18:52.565Z,19.10
2023-08-08T08:21:22.803Z,19.70
2023-08-08T08:23:52.638Z,20.20
2023-08-08T08:26:25.181Z,19.90
2023-08-08T08:28:55.106Z,19.50
2023-08-08T08:31:25.158Z,19.30
2023-08-08T08:33:56.314Z,19.90
2023-08-08T08:36:27.258Z,20.30
2023-08-08T08:38:57.137Z,20.20
2023-08-08T08:41:31.742Z,20.00
2023-08-08T08:44:02.000Z,20.20
2023-08-08T08:46:33.964Z,19.80
2023-08-08T08:49:06.379Z,19.80
2023-08-08T08:51:36.433Z,20.30
2023-08-08T08:54:06.865Z,20.70
2023-08-08T08:56:39.316Z,20.30
2023-08-08T08:59:09.532Z,20.30
2023-08-08T09:01:39.887Z,20.30
2023-08-08T09:04:11.694Z,19.50
2023-08-08T09:06:42.130Z,19.60
2023-08-08T09:09:16.976Z,19.80
2023-08-08T09:11:52.288Z,20.30
2023-08-08T09:14:23.193Z,20.70
2023-08-08T09:16:54.453Z,20.20
2023-08-08T09:19:25.650Z,19.80
2023-08-08T09:21:56.929Z,20.60
2023-08-08T09:24:26.826Z,21.20
2023-08-08T09:26:59.700Z,20.90
2023-08-08T09:29:29.586Z,20.30
2023-08-08T09:31:59.740Z,20.20
2023-08-08T09:34:29.970Z,21.10
2023-08-08T09:36:59.886Z,21.00
2023-08-08T09:39:29.954Z,20.40
2023-08-08T09:42:02.600Z,20.40
2023-08-08T09:44:36.181Z,20.50
2023-08-08T09:47:06.676Z,20.80
2023-08-08T09:49:37.837Z,20.50
2023-08-08T09:52:09.094Z,21.00
2023-08-08T09:54:39.957Z,20.90
2023-08-08T09:57:13.637Z,20.60
2023-08-08T09:59:44.069Z,20.70
2023-08-08T10:02:18.169Z,21.40
2023-08-08T10:04:49.589Z,21.20
2023-08-08T10:07:19.447Z,21.20
2023-08-08T10:09:49.464Z,21.30
2023-08-08T10:12:22.250Z,21.40
2023-08-08T10:14:52.337Z,21.70
2023-08-08T10:17:23.032Z,21.80
2023-08-08T10:19:57.956Z,21.80
2023-08-08T10:22:28.790Z,21.00
2023-08-08T10:24:59.584Z,20.50
2023-08-08T10:27:36.389Z,20.90
2023-08-08T10:30:11.966Z,21.70
2023-08-08T10:32:47.789Z,21.40
2023-08-08T10:35:17.936Z,21.40
2023-08-08T10:37:57.100Z,21.30
2023-08-08T10:40:27.342Z,21.50
2023-08-08T10:42:59.822Z,22.10
2023-08-08T10:45:33.821Z,22.50
2023-08-08T10:48:12.480Z,22.40
2023-08-08T10:50:44.735Z,22.50
2023-08-08T10:53:15.779Z,21.80
2023-08-08T10:55:47.775Z,21.70
2023-08-08T10:58:21.243Z,21.60
2023-08-08T11:00:51.989Z,21.60
2023-08-08T11:03:22.360Z,21.90
2023-08-08T11:05:53.939Z,22.40
2023-08-08T11:08:24.251Z,21.80
2023-08-08T11:10:56.166Z,22.50
2023-08-08T11:13:28.914Z,22.70
2023-08-08T11:15:58.984Z,21.60
2023-08-08T11:18:29.287Z,21.80
2023-08-08T11:21:12.739Z,21.60
2023-08-08T11:23:50.088Z,21.80
2023-08-08T11:26:22.763Z,21.60
2023-08-08T11:28:58.380Z,21.20
2023-08-08T11:31:29.105Z,21.40
2023-08-08T11:34:00.329Z,21.30
2023-08-08T11:36:33.837Z,21.50
2023-08-08T11:39:09.433Z,21.80
2023-08-08T11:41:41.771Z,22.00
2023-08-08T11:44:14.606Z,21.80
2023-08-08T11:46:49.498Z,22.10
2023-08-08T11:49:21.390Z,22.30
2023-08-08T11:51:51.441Z,22.80
2023-08-08T11:54:22.739Z,22.10
2023-08-08T11:56:52.584Z,22.80
2023-08-08T11:59:25.980Z,22.40
2023-08-08T12:01:55.972Z,23.30
2023-08-08T12:04:27.934Z,23.30
2023-08-08T12:07:06.372Z,22.60
2023-08-08T12:09:36.845Z,22.10
2023-08-08T12:12:09.645Z,21.60
2023-08-08T12:14:51.456Z,22.10
2023-08-08T12:17:26.987Z,22.30
2023-08-08T12:19:57.526Z,22.50
2023-08-08T12:22:28.008Z,22.30
2023-08-08T12:24:58.467Z,22.20
2023-08-08T12:27:28.466Z,22.70
2023-08-08T12:30:01.103Z,22.60
2023-08-08T12:32:33.701Z,22.30
2023-08-08T12:35:03.703Z,23.00
2023-08-08T12:37:33.836Z,22.10
2023-08-08T12:40:05.355Z,22.30
2023-08-08T12:42:36.021Z,22.20
2023-08-08T12:45:10.940Z,22.20
2023-08-08T12:47:41.137Z,22.50
2023-08-08T12:50:11.724Z,22.10
2023-08-08T12:52:41.955Z,22.40
2023-08-08T12:55:13.060Z,22.30
2023-08-08T12:57:43.015Z,22.30
2023-08-08T13:00:17.694Z,22.80
2023-08-08T13:02:48.696Z,23.10
2023-08-08T13:05:18.673Z,22.50
2023-08-08T13:07:49.097Z,22.70
2023-08-08T13:10:20.662Z,22.90
2023-08-08T13:12:50.620Z,23.30
2023-08-08T13:15:23.111Z,23.70
2023-08-08T13:17:53.025Z,22.90
2023-08-08T13:20:23.466Z,23.60
2023-08-08T13:22:53.634Z,23.30
2023-08-08T13:25:23.538Z,23.50
2023-08-08T13:27:53.470Z,22.90
2023-08-08T13:30:26.117Z,23.30
2023-08-08T13:32:56.126Z,22.90
2023-08-08T13:35:26.258Z,22.80
2023-08-08T13:37:56.413Z,22.90
2023-08-08T13:40:26.411Z,22.80
2023-08-08T13:42:56.304Z,23.30
2023-08-08T13:45:28.965Z,22.80
2023-08-08T13:47:58.907Z,22.50
2023-08-08T13:50:29.484Z,23.10
2023-08-08T13:52:59.693Z,22.90
2023-08-08T13:55:29.567Z,22.70
2023-08-08T13:57:59.511Z,23.50
2023-08-08T14:00:32.220Z,23.30
2023-08-08T14:03:04.434Z,23.30
2023-08-08T14:05:34.607Z,23.80
2023-08-08T14:08:04.472Z,23.60
2023-08-08T14:10:34.381Z,23.50
2023-08-08T14:13:04.288Z,23.90
2023-08-08T14:15:37.572Z,23.10
2023-08-08T14:18:08.115Z,22.40
2023-08-08T14:20:39.416Z,22.80
2023-08-08T14:23:09.587Z,22.60
2023-08-08T14:25:39.594Z,22.90
2023-08-08T14:28:09.579Z,22.90
2023-08-08T14:30:42.046Z,22.70
2023-08-08T14:33:12.216Z,22.30
2023-08-08T14:35:42.202Z,22.40
2023-08-08T14:38:12.078Z,22.20
2023-08-08T14:40:42.075Z,21.90
2023-08-08T14:43:13.132Z,22.30
2023-08-08T14:45:45.827Z,22.50
2023-08-08T14:48:15.794Z,22.20
2023-08-08T14:50:45.716Z,22.10
2023-08-08T14:53:15.672Z,22.40
2023-08-08T14:55:45.561Z,21.90
2023-08-08T14:58:15.578Z,22.10
2023-08-08T15:00:48.971Z,22.20
2023-08-08T15:05:50.401Z,22.00
2023-08-08T15:08:20.383Z,21.80
2023-08-08T15:10:50.292Z,22.00
2023-08-08T15:13:20.205Z,21.80
2023-08-08T15:15:52.748Z,21.70
2023-08-08T15:18:22.620Z,21.70
2023-08-08T15:20:52.664Z,21.40
2023-08-08T15:23:22.688Z,22.20
2023-08-08T15:25:52.842Z,22.40
2023-08-08T15:28:22.668Z,22.30
2023-08-08T15:30:55.229Z,22.20
2023-08-08T15:33:25.211Z,22.20
2023-08-08T15:35:55.132Z,22.00
2023-08-08T15:38:25.410Z,21.80
2023-08-08T15:40:55.262Z,22.00
2023-08-08T15:43:25.999Z,22.20
2023-08-08T15:45:59.647Z,22.10
2023-08-08T15:48:30.227Z,22.10
2023-08-08T15:51:00.138Z,22.00
2023-08-08T15:53:30.742Z,22.00
2023-08-08T15:56:01.028Z,22.00
2023-08-08T15:58:31.071Z,22.10
2023-08-08T16:01:04.514Z,21.70
2023-08-08T16:03:35.735Z,21.90
2023-08-08T16:06:05.715Z,22.00
2023-08-08T16:08:35.600Z,21.80
2023-08-08T16:11:06.956Z,21.60
2023-08-08T16:13:36.913Z,21.80
2023-08-08T16:16:09.373Z,21.90
2023-08-08T16:18:39.222Z,21.80
2023-08-08T16:21:09.086Z,21.80
2023-08-08T16:23:39.048Z,22.10
2023-08-08T16:26:08.953Z,22.10
2023-08-08T16:28:39.035Z,22.40
2023-08-08T16:31:11.889Z,22.40
2023-08-08T16:33:44.437Z,22.20
2023-08-08T16:36:15.998Z,22.10
2023-08-08T16:38:46.037Z,21.70
2023-08-08T16:41:15.962Z,21.80
2023-08-08T16:43:45.847Z,21.80
2023-08-08T16:46:18.325Z,21.80
2023-08-08T16:48:48.291Z,21.80
2023-08-08T16:51:18.147Z,21.80
2023-08-08T16:53:48.204Z,21.60
2023-08-08T16:56:18.309Z,21.60
2023-08-08T16:58:48.471Z,21.30
2023-08-08T17:01:21.084Z,21.30
2023-08-08T17:03:51.092Z,21.10
2023-08-08T17:06:21.438Z,21.00
2023-08-08T17:08:51.405Z,21.20
2023-08-08T17:11:23.572Z,21.20
2023-08-08T17:13:56.153Z,21.30
2023-08-08T17:16:29.075Z,21.10
2023-08-08T17:18:59.041Z,20.90
2023-08-08T17:21:28.935Z,20.80
2023-08-08T17:23:58.881Z,20.80
2023-08-08T17:26:28.760Z,20.90
2023-08-08T17:28:58.782Z,20.70
2023-08-08T17:31:31.408Z,20.80
2023-08-08T17:34:02.665Z,20.80
2023-08-08T17:36:33.894Z,20.70
2023-08-08T17:39:03.805Z,20.60
2023-08-08T17:41:33.709Z,20.70
2023-08-08T17:44:03.570Z,20.50
2023-08-08T17:46:36.757Z,20.60
2023-08-08T17:49:07.195Z,20.60
2023-08-08T17:51:37.099Z,20.60
2023-08-08T17:54:07.184Z,20.60
2023-08-08T17:56:37.151Z,20.60
2023-08-08T17:59:07.274Z,20.60
2023-08-08T18:01:40.497Z,20.40
2023-08-08T18:04:10.870Z,20.40
2023-08-08T18:06:40.790Z,20.30
2023-08-08T18:09:11.058Z,20.30
2023-08-08T18:11:41.892Z,20.30
2023-08-08T18:14:13.015Z,20.20
2023-08-08T18:16:45.465Z,20.20
2023-08-08T18:19:20.384Z,20.10
2023-08-08T18:21:50.289Z,20.10
2023-08-08T18:24:20.199Z,20.10
2023-08-08T18:26:50.098Z,20.10
2023-08-08T18:29:20.048Z,20.20
2023-08-08T18:31:52.575Z,20.20
2023-08-08T18:34:22.626Z,20.20
2023-08-08T18:36:52.594Z,20.10
2023-08-08T18:39:22.500Z,20.20
2023-08-08T18:41:53.038Z,20.10
2023-08-08T18:44:23.088Z,20.10
2023-08-08T18:46:55.559Z,20.10
2023-08-08T18:49:25.410Z,20.00
2023-08-08T18:51:55.298Z,20.00
2023-08-08T18:54:25.154Z,20.00
2023-08-08T18:56:55.006Z,20.00
2023-08-08T18:59:25.674Z,19.90
2023-08-08T19:01:58.196Z,19.90
2023-08-08T19:04:28.162Z,19.90
2023-08-08T19:06:58.103Z,19.80
2023-08-08T19:09:28.189Z,19.80
2023-08-08T19:11:58.233Z,19.70
2023-08-08T19:14:29.175Z,19.70
2023-08-08T19:17:01.619Z,19.70
2023-08-08T19:19:32.003Z,19.60
2023-08-08T19:22:02.127Z,19.50
2023-08-08T19:24:32.683Z,19.50
2023-08-08T19:27:02.536Z,19.50
2023-08-08T19:29:32.518Z,19.50
2023-08-08T19:32:04.976Z,19.40
2023-08-08T19:34:34.894Z,19.50
2023-08-08T19:37:04.829Z,19.50
2023-08-08T19:39:36.036Z,19.40
2023-08-08T19:42:06.534Z,19.40
2023-08-08T19:44:36.438Z,19.40
2023-08-08T19:47:09.745Z,19.40
2023-08-08T19:49:40.017Z,19.40
2023-08-08T19:52:09.891Z,19.40
2023-08-08T19:54:39.748Z,19.30
2023-08-08T19:57:09.637Z,19.30
2023-08-08T19:59:39.607Z,19.30
2023-08-08T20:02:12.125Z,19.20
2023-08-08T20:04:42.024Z,19.10
2023-08-08T20:07:12.055Z,19.00
2023-08-08T20:09:41.936Z,18.90
2023-08-08T20:12:12.843Z,18.90
2023-08-08T20:14:43.020Z,18.80
2023-08-08T20:17:15.526Z,18.80
2023-08-08T20:19:45.376Z,18.70
2023-08-08T20:22:15.260Z,18.70
2023-08-08T20:24:45.352Z,18.60
2023-08-08T20:27:15.195Z,18.70
2023-08-08T20:29:45.081Z,18.60
2023-08-08T20:32:17.635Z,18.50
2023-08-08T20:34:47.501Z,18.50
2023-08-08T20:37:18.556Z,18.50
2023-08-08T20:39:48.897Z,18.50
2023-08-08T20:42:18.915Z,18.40
2023-08-08T20:44:48.763Z,18.40
2023-08-08T20:47:21.203Z,18.40
2023-08-08T20:49:52.373Z,18.40
2023-08-08T20:52:22.475Z,18.40
2023-08-08T20:54:52.344Z,18.40
2023-08-08T20:57:22.213Z,18.40
2023-08-08T20:59:52.209Z,18.40
2023-08-08T21:02:24.715Z,18.40
2023-08-08T21:04:54.666Z,18.40
2023-08-08T21:07:25.405Z,18.40
2023-08-08T21:09:55.269Z,18.40
2023-08-08T21:12:25.120Z,18.40
2023-08-08T21:14:54.989Z,18.40
2023-08-08T21:17:27.482Z,18.30
2023-08-08T21:19:57.782Z,18.30
2023-08-08T21:22:27.795Z,18.30
2023-08-08T21:24:57.774Z,18.20
2023-08-08T21:27:27.667Z,18.20
2023-08-08T21:29:57.588Z,18.20
2023-08-08T21:32:30.196Z,18.20
2023-08-08T21:35:00.099Z,18.10
2023-08-08T21:37:30.080Z,18.10
2023-08-08T21:39:59.906Z,18.10
2023-08-08T21:42:29.856Z,18.00
2023-08-08T21:44:59.796Z,18.00
2023-08-08T21:47:32.264Z,18.00
2023-08-08T21:50:02.201Z,18.00
2023-08-08T21:52:32.048Z,18.10
2023-08-08T21:55:02.150Z,18.00
2023-08-08T21:57:32.677Z,17.90
2023-08-08T22:00:02.553Z,17.90
2023-08-08T22:02:35.404Z,17.90
2023-08-08T22:05:05.357Z,17.90
2023-08-08T22:07:36.333Z,17.90
2023-08-08T22:10:06.930Z,17.80
2023-08-08T22:12:36.928Z,17.80
2023-08-08T22:15:07.749Z,17.80
2023-08-08T22:17:43.139Z,17.80
2023-08-08T22:20:15.478Z,17.80
2023-08-08T22:22:45.347Z,17.80
2023-08-08T22:25:15.697Z,17.80
2023-08-08T22:27:45.595Z,17.70
2023-08-08T22:30:16.571Z,17.80
2023-08-08T22:32:51.700Z,17.70
2023-08-08T22:35:21.851Z,17.80
2023-08-08T22:37:52.009Z,17.80
2023-08-08T22:40:22.232Z,17.80
2023-08-08T22:42:52.302Z,17.80
2023-08-08T22:45:22.230Z,17.80
2023-08-08T22:47:54.715Z,17.80
2023-08-08T22:50:24.819Z,17.80
2023-08-08T22:52:54.784Z,17.80
2023-08-08T22:55:24.727Z,17.70
2023-08-08T22:57:54.606Z,17.70
2023-08-08T23:00:24.451Z,17.70
2023-08-08T23:02:56.980Z,17.70
2023-08-08T23:05:27.887Z,17.60
2023-08-08T23:07:57.855Z,17.60
2023-08-08T23:10:27.853Z,17.60
2023-08-08T23:12:57.700Z,17.60
2023-08-08T23:15:27.592Z,17.50
2023-08-08T23:18:00.090Z,17.50
2023-08-08T23:20:30.171Z,17.40
2023-08-08T23:23:00.021Z,17.50
2023-08-08T23:25:30.053Z,17.40
2023-08-08T23:27:59.951Z,17.50
2023-08-08T23:30:30.962Z,17.50
2023-08-08T23:33:03.759Z,17.40
2023-08-08T23:35:33.740Z,17.40
2023-08-08T23:38:03.627Z,17.40
2023-08-08T23:40:33.693Z,17.40
2023-08-08T23:43:03.556Z,17.40
2023-08-08T23:45:33.431Z,17.40
2023-08-08T23:48:06.169Z,17.40
2023-08-08T23:50:36.052Z,17.40
2023-08-08T23:53:06.287Z,17.40
2023-08-08T23:55:36.398Z,17.40
2023-08-08T23:58:06.778Z,17.40
